Bancroft, Idaho
Current Conditions -  °F | °C
As of 2:53 AM on Sunday 25 Jan 2015 (Local Time) from KPIH Reporting Station
Overcast Overcast  
Wind Chill: 25°   Ceiling: 1600
Heat Index: 30°   Visibility: 8mi
Dew Point: 29°   Wind: 5mph
Humidity: 96%   Direction: 20°NNE
Pressure: 30.46"   Gusts: NA
Location:  42.72°N, 111.89°W
Report Text: KPIH 250953Z AUTO 02004KT 8SM OVC016 M01/M02 A3046 RMK AO2 SLP340 T10111017
Loading
Personal Weather Stations






























Interactive Weather Map New forecast layout! Learn more

10-Day Weather Forecast

Advertisements
Track Severe Weather on mobile